sensor_id;sensor_type;location;lat;lon;timestamp;P1;durP1;ratioP1;P2;durP2;ratioP2
17177;SDS011;8704;52.006;4.374;2023-04-27T00:00:09;14.23;;;7.78;;
17177;SDS011;8704;52.006;4.374;2023-04-27T00:02:40;14.43;;;7.57;;
17177;SDS011;8704;52.006;4.374;2023-04-27T00:05:08;11.32;;;7.05;;
17177;SDS011;8704;52.006;4.374;2023-04-27T00:07:38;11.63;;;7.32;;
17177;SDS011;8704;52.006;4.374;2023-04-27T00:10:07;11.02;;;6.97;;
17177;SDS011;8704;52.006;4.374;2023-04-27T00:12:35;10.07;;;6.65;;
17177;SDS011;8704;52.006;4.374;2023-04-27T00:15:04;11.85;;;6.82;;
17177;SDS011;8704;52.006;4.374;2023-04-27T00:17:32;11.38;;;6.38;;
17177;SDS011;8704;52.006;4.374;2023-04-27T00:20:02;9.18;;;6.53;;
17177;SDS011;8704;52.006;4.374;2023-04-27T00:22:34;10.02;;;6.97;;
17177;SDS011;8704;52.006;4.374;2023-04-27T00:25:03;12.25;;;6.50;;
17177;SDS011;8704;52.006;4.374;2023-04-27T00:27:31;11.02;;;6.57;;
17177;SDS011;8704;52.006;4.374;2023-04-27T00:29:59;10.38;;;6.80;;
17177;SDS011;8704;52.006;4.374;2023-04-27T00:32:27;9.35;;;6.40;;
17177;SDS011;8704;52.006;4.374;2023-04-27T00:34:55;9.82;;;6.65;;
17177;SDS011;8704;52.006;4.374;2023-04-27T00:37:25;10.60;;;7.07;;
17177;SDS011;8704;52.006;4.374;2023-04-27T00:39:53;10.20;;;6.63;;
17177;SDS011;8704;52.006;4.374;2023-04-27T00:42:21;11.15;;;6.55;;
17177;SDS011;8704;52.006;4.374;2023-04-27T00:44:50;13.77;;;7.18;;
17177;SDS011;8704;52.006;4.374;2023-04-27T00:47:18;10.88;;;7.45;;
17177;SDS011;8704;52.006;4.374;2023-04-27T00:49:46;11.00;;;7.30;;
17177;SDS011;8704;52.006;4.374;2023-04-27T00:52:15;12.65;;;7.88;;
17177;SDS011;8704;52.006;4.374;2023-04-27T00:54:44;9.32;;;6.72;;
17177;SDS011;8704;52.006;4.374;2023-04-27T00:57:15;9.75;;;6.72;;
17177;SDS011;8704;52.006;4.374;2023-04-27T00:59:43;10.43;;;7.07;;
17177;SDS011;8704;52.006;4.374;2023-04-27T01:02:11;10.50;;;7.43;;
17177;SDS011;8704;52.006;4.374;2023-04-27T01:04:39;12.75;;;7.30;;
17177;SDS011;8704;52.006;4.374;2023-04-27T01:07:07;10.25;;;7.40;;
17177;SDS011;8704;52.006;4.374;2023-04-27T01:09:35;10.98;;;7.53;;
17177;SDS011;8704;52.006;4.374;2023-04-27T01:12:05;11.27;;;7.55;;
17177;SDS011;8704;52.006;4.374;2023-04-27T01:14:34;13.93;;;8.13;;
17177;SDS011;8704;52.006;4.374;2023-04-27T01:17:03;14.38;;;8.07;;
17177;SDS011;8704;52.006;4.374;2023-04-27T01:19:31;10.63;;;8.40;;
17177;SDS011;8704;52.006;4.374;2023-04-27T01:21:59;9.52;;;7.63;;
17177;SDS011;8704;52.006;4.374;2023-04-27T01:24:29;11.20;;;8.70;;
17177;SDS011;8704;52.006;4.374;2023-04-27T01:26:57;11.52;;;8.70;;
17177;SDS011;8704;52.006;4.374;2023-04-27T01:29:26;14.40;;;8.82;;
17177;SDS011;8704;52.006;4.374;2023-04-27T01:31:54;11.27;;;8.45;;
17177;SDS011;8704;52.006;4.374;2023-04-27T01:34:22;13.32;;;8.70;;
17177;SDS011;8704;52.006;4.374;2023-04-27T01:36:50;14.98;;;9.32;;
17177;SDS011;8704;52.006;4.374;2023-04-27T01:39:18;14.32;;;9.07;;
17177;SDS011;8704;52.006;4.374;2023-04-27T01:41:48;14.27;;;10.35;;
17177;SDS011;8704;52.006;4.374;2023-04-27T01:44:16;13.00;;;8.93;;
17177;SDS011;8704;52.006;4.374;2023-04-27T01:46:46;14.10;;;9.68;;
17177;SDS011;8704;52.006;4.374;2023-04-27T01:49:14;13.63;;;9.30;;
17177;SDS011;8704;52.006;4.374;2023-04-27T01:51:42;13.63;;;8.90;;
17177;SDS011;8704;52.006;4.374;2023-04-27T01:54:10;16.00;;;9.15;;
17177;SDS011;8704;52.006;4.374;2023-04-27T01:56:38;14.82;;;9.50;;
17177;SDS011;8704;52.006;4.374;2023-04-27T01:59:08;13.38;;;9.85;;
17177;SDS011;8704;52.006;4.374;2023-04-27T02:01:36;16.65;;;9.27;;
17177;SDS011;8704;52.006;4.374;2023-04-27T02:04:04;13.45;;;9.75;;
17177;SDS011;8704;52.006;4.374;2023-04-27T02:06:33;15.73;;;10.43;;
17177;SDS011;8704;52.006;4.374;2023-04-27T02:09:01;13.38;;;10.00;;
17177;SDS011;8704;52.006;4.374;2023-04-27T02:11:29;11.77;;;9.25;;
17177;SDS011;8704;52.006;4.374;2023-04-27T02:13:57;15.60;;;9.68;;
17177;SDS011;8704;52.006;4.374;2023-04-27T02:16:27;15.10;;;10.10;;
17177;SDS011;8704;52.006;4.374;2023-04-27T02:18:55;13.95;;;10.23;;
17177;SDS011;8704;52.006;4.374;2023-04-27T02:21:24;17.08;;;10.07;;
17177;SDS011;8704;52.006;4.374;2023-04-27T02:23:53;14.77;;;10.63;;
17177;SDS011;8704;52.006;4.374;2023-04-27T02:26:21;16.13;;;10.30;;
17177;SDS011;8704;52.006;4.374;2023-04-27T02:28:54;12.63;;;9.80;;
17177;SDS011;8704;52.006;4.374;2023-04-27T02:31:23;16.95;;;10.57;;
17177;SDS011;8704;52.006;4.374;2023-04-27T02:33:52;19.40;;;10.70;;
17177;SDS011;8704;52.006;4.374;2023-04-27T02:36:21;15.75;;;10.65;;
17177;SDS011;8704;52.006;4.374;2023-04-27T02:38:49;14.10;;;10.30;;
17177;SDS011;8704;52.006;4.374;2023-04-27T02:41:17;17.73;;;10.98;;
17177;SDS011;8704;52.006;4.374;2023-04-27T02:43:46;15.23;;;10.40;;
17177;SDS011;8704;52.006;4.374;2023-04-27T02:46:14;16.73;;;10.40;;
17177;SDS011;8704;52.006;4.374;2023-04-27T02:48:42;14.32;;;9.60;;
17177;SDS011;8704;52.006;4.374;2023-04-27T02:51:11;17.45;;;10.95;;
17177;SDS011;8704;52.006;4.374;2023-04-27T02:53:39;16.02;;;10.02;;
17177;SDS011;8704;52.006;4.374;2023-04-27T02:56:07;15.57;;;10.45;;
17177;SDS011;8704;52.006;4.374;2023-04-27T02:58:35;12.07;;;8.82;;
17177;SDS011;8704;52.006;4.374;2023-04-27T03:01:03;15.05;;;10.15;;
17177;SDS011;8704;52.006;4.374;2023-04-27T03:03:31;12.90;;;9.35;;
17177;SDS011;8704;52.006;4.374;2023-04-27T03:05:59;12.65;;;9.10;;
17177;SDS011;8704;52.006;4.374;2023-04-27T03:08:30;13.98;;;8.23;;
17177;SDS011;8704;52.006;4.374;2023-04-27T03:10:58;12.35;;;8.40;;
17177;SDS011;8704;52.006;4.374;2023-04-27T03:13:26;13.77;;;8.68;;
17177;SDS011;8704;52.006;4.374;2023-04-27T03:15:54;12.80;;;8.70;;
17177;SDS011;8704;52.006;4.374;2023-04-27T03:18:22;14.80;;;8.85;;
17177;SDS011;8704;52.006;4.374;2023-04-27T03:20:50;16.05;;;9.10;;
17177;SDS011;8704;52.006;4.374;2023-04-27T03:23:18;13.63;;;8.35;;
17177;SDS011;8704;52.006;4.374;2023-04-27T03:25:47;12.60;;;8.13;;
17177;SDS011;8704;52.006;4.374;2023-04-27T03:28:15;12.10;;;8.38;;
17177;SDS011;8704;52.006;4.374;2023-04-27T03:30:43;11.30;;;7.82;;
17177;SDS011;8704;52.006;4.374;2023-04-27T03:33:11;12.52;;;8.23;;
17177;SDS011;8704;52.006;4.374;2023-04-27T03:35:39;15.15;;;8.48;;
17177;SDS011;8704;52.006;4.374;2023-04-27T03:38:07;12.43;;;8.52;;
17177;SDS011;8704;52.006;4.374;2023-04-27T03:40:35;11.43;;;8.48;;
17177;SDS011;8704;52.006;4.374;2023-04-27T03:43:05;12.52;;;8.63;;
17177;SDS011;8704;52.006;4.374;2023-04-27T03:45:33;12.40;;;8.63;;
17177;SDS011;8704;52.006;4.374;2023-04-27T03:48:01;12.48;;;8.48;;
17177;SDS011;8704;52.006;4.374;2023-04-27T03:50:29;10.65;;;8.55;;
17177;SDS011;8704;52.006;4.374;2023-04-27T03:52:57;11.93;;;7.95;;
17177;SDS011;8704;52.006;4.374;2023-04-27T03:55:25;12.00;;;8.15;;
17177;SDS011;8704;52.006;4.374;2023-04-27T03:57:53;14.57;;;8.13;;
17177;SDS011;8704;52.006;4.374;2023-04-27T04:00:22;13.48;;;8.27;;
17177;SDS011;8704;52.006;4.374;2023-04-27T04:02:51;11.77;;;7.82;;
17177;SDS011;8704;52.006;4.374;2023-04-27T04:05:19;13.70;;;8.35;;
17177;SDS011;8704;52.006;4.374;2023-04-27T04:07:47;12.20;;;8.20;;
17177;SDS011;8704;52.006;4.374;2023-04-27T04:10:15;12.65;;;7.60;;
17177;SDS011;8704;52.006;4.374;2023-04-27T04:12:44;12.75;;;8.55;;
17177;SDS011;8704;52.006;4.374;2023-04-27T04:15:13;12.75;;;8.77;;
17177;SDS011;8704;52.006;4.374;2023-04-27T04:17:43;11.20;;;8.30;;
17177;SDS011;8704;52.006;4.374;2023-04-27T04:20:12;14.25;;;8.32;;
17177;SDS011;8704;52.006;4.374;2023-04-27T04:22:41;10.32;;;7.95;;
17177;SDS011;8704;52.006;4.374;2023-04-27T04:25:09;12.48;;;8.43;;
17177;SDS011;8704;52.006;4.374;2023-04-27T04:27:38;11.88;;;8.18;;
17177;SDS011;8704;52.006;4.374;2023-04-27T04:30:06;11.95;;;7.82;;
17177;SDS011;8704;52.006;4.374;2023-04-27T04:32:34;10.82;;;7.60;;
17177;SDS011;8704;52.006;4.374;2023-04-27T04:35:05;11.07;;;8.23;;
17177;SDS011;8704;52.006;4.374;2023-04-27T04:37:34;13.43;;;8.15;;
17177;SDS011;8704;52.006;4.374;2023-04-27T04:40:03;14.75;;;8.23;;
17177;SDS011;8704;52.006;4.374;2023-04-27T04:42:34;16.00;;;8.05;;
17177;SDS011;8704;52.006;4.374;2023-04-27T04:45:04;12.35;;;8.23;;
17177;SDS011;8704;52.006;4.374;2023-04-27T04:47:33;13.40;;;8.30;;
17177;SDS011;8704;52.006;4.374;2023-04-27T04:50:01;14.60;;;8.75;;
17177;SDS011;8704;52.006;4.374;2023-04-27T04:52:31;13.48;;;9.00;;
17177;SDS011;8704;52.006;4.374;2023-04-27T04:54:59;12.20;;;9.23;;
17177;SDS011;8704;52.006;4.374;2023-04-27T04:57:27;12.55;;;8.48;;
17177;SDS011;8704;52.006;4.374;2023-04-27T04:59:56;15.57;;;8.88;;
17177;SDS011;8704;52.006;4.374;2023-04-27T05:02:24;13.68;;;8.63;;
17177;SDS011;8704;52.006;4.374;2023-04-27T05:04:52;11.88;;;8.57;;
17177;SDS011;8704;52.006;4.374;2023-04-27T05:07:22;15.38;;;8.23;;
17177;SDS011;8704;52.006;4.374;2023-04-27T05:09:51;13.02;;;8.77;;
17177;SDS011;8704;52.006;4.374;2023-04-27T05:12:19;12.32;;;8.80;;
17177;SDS011;8704;52.006;4.374;2023-04-27T05:14:48;12.68;;;9.05;;
17177;SDS011;8704;52.006;4.374;2023-04-27T05:17:17;11.90;;;8.50;;
17177;SDS011;8704;52.006;4.374;2023-04-27T05:19:45;15.65;;;9.02;;
17177;SDS011;8704;52.006;4.374;2023-04-27T05:22:13;14.02;;;9.73;;
17177;SDS011;8704;52.006;4.374;2023-04-27T05:24:41;16.10;;;9.57;;
17177;SDS011;8704;52.006;4.374;2023-04-27T05:27:12;13.85;;;9.55;;
17177;SDS011;8704;52.006;4.374;2023-04-27T05:29:40;12.57;;;9.70;;
17177;SDS011;8704;52.006;4.374;2023-04-27T05:32:08;12.75;;;9.65;;
17177;SDS011;8704;52.006;4.374;2023-04-27T05:34:36;16.10;;;9.82;;
17177;SDS011;8704;52.006;4.374;2023-04-27T05:37:04;13.25;;;8.98;;
17177;SDS011;8704;52.006;4.374;2023-04-27T05:39:32;14.25;;;8.82;;
17177;SDS011;8704;52.006;4.374;2023-04-27T05:42:00;12.43;;;8.05;;
17177;SDS011;8704;52.006;4.374;2023-04-27T05:44:30;12.82;;;8.88;;
17177;SDS011;8704;52.006;4.374;2023-04-27T05:46:58;13.75;;;8.52;;
17177;SDS011;8704;52.006;4.374;2023-04-27T05:49:26;13.25;;;8.50;;
17177;SDS011;8704;52.006;4.374;2023-04-27T05:51:54;13.70;;;9.07;;
17177;SDS011;8704;52.006;4.374;2023-04-27T05:54:24;14.48;;;9.05;;
17177;SDS011;8704;52.006;4.374;2023-04-27T05:56:52;14.25;;;9.48;;
17177;SDS011;8704;52.006;4.374;2023-04-27T05:59:20;13.90;;;9.27;;
17177;SDS011;8704;52.006;4.374;2023-04-27T06:01:50;14.30;;;9.00;;
17177;SDS011;8704;52.006;4.374;2023-04-27T06:04:18;11.75;;;8.80;;
17177;SDS011;8704;52.006;4.374;2023-04-27T06:06:46;15.60;;;9.25;;
17177;SDS011;8704;52.006;4.374;2023-04-27T06:09:14;13.77;;;8.32;;
17177;SDS011;8704;52.006;4.374;2023-04-27T06:11:42;12.82;;;8.30;;
17177;SDS011;8704;52.006;4.374;2023-04-27T06:14:12;13.48;;;8.10;;
17177;SDS011;8704;52.006;4.374;2023-04-27T06:16:40;14.20;;;8.63;;
17177;SDS011;8704;52.006;4.374;2023-04-27T06:19:09;13.73;;;8.25;;
17177;SDS011;8704;52.006;4.374;2023-04-27T06:21:38;11.93;;;7.43;;
17177;SDS011;8704;52.006;4.374;2023-04-27T06:24:06;12.32;;;7.93;;
17177;SDS011;8704;52.006;4.374;2023-04-27T06:26:34;13.10;;;8.65;;
17177;SDS011;8704;52.006;4.374;2023-04-27T06:29:02;11.82;;;8.07;;
17177;SDS011;8704;52.006;4.374;2023-04-27T06:31:32;14.90;;;7.70;;
17177;SDS011;8704;52.006;4.374;2023-04-27T06:34:01;13.73;;;7.97;;
17177;SDS011;8704;52.006;4.374;2023-04-27T06:36:31;11.93;;;7.70;;
17177;SDS011;8704;52.006;4.374;2023-04-27T06:38:59;12.27;;;7.13;;
17177;SDS011;8704;52.006;4.374;2023-04-27T06:41:27;10.20;;;6.88;;
17177;SDS011;8704;52.006;4.374;2023-04-27T06:43:55;10.38;;;7.18;;
17177;SDS011;8704;52.006;4.374;2023-04-27T06:46:24;11.05;;;7.38;;
17177;SDS011;8704;52.006;4.374;2023-04-27T06:48:52;13.35;;;7.13;;
17177;SDS011;8704;52.006;4.374;2023-04-27T06:51:20;14.85;;;7.03;;
17177;SDS011;8704;52.006;4.374;2023-04-27T06:53:50;8.18;;;5.95;;
17177;SDS011;8704;52.006;4.374;2023-04-27T06:56:18;10.88;;;5.88;;
17177;SDS011;8704;52.006;4.374;2023-04-27T06:58:46;9.90;;;5.53;;
17177;SDS011;8704;52.006;4.374;2023-04-27T07:01:14;10.65;;;5.55;;
17177;SDS011;8704;52.006;4.374;2023-04-27T07:03:42;11.95;;;5.22;;
17177;SDS011;8704;52.006;4.374;2023-04-27T07:06:10;8.15;;;5.07;;
17177;SDS011;8704;52.006;4.374;2023-04-27T07:08:39;8.90;;;5.03;;
17177;SDS011;8704;52.006;4.374;2023-04-27T07:11:08;8.63;;;5.00;;
17177;SDS011;8704;52.006;4.374;2023-04-27T07:13:36;11.07;;;5.53;;
17177;SDS011;8704;52.006;4.374;2023-04-27T07:16:04;10.35;;;5.28;;
17177;SDS011;8704;52.006;4.374;2023-04-27T07:18:33;10.07;;;4.88;;
17177;SDS011;8704;52.006;4.374;2023-04-27T07:21:01;11.10;;;5.60;;
17177;SDS011;8704;52.006;4.374;2023-04-27T07:23:29;9.45;;;5.18;;
17177;SDS011;8704;52.006;4.374;2023-04-27T07:25:57;10.63;;;4.82;;
17177;SDS011;8704;52.006;4.374;2023-04-27T07:28:28;9.48;;;5.63;;
17177;SDS011;8704;52.006;4.374;2023-04-27T07:30:56;6.80;;;4.35;;
17177;SDS011;8704;52.006;4.374;2023-04-27T07:33:24;7.70;;;4.68;;
17177;SDS011;8704;52.006;4.374;2023-04-27T07:35:53;8.98;;;4.78;;
17177;SDS011;8704;52.006;4.374;2023-04-27T07:38:21;7.85;;;4.32;;
17177;SDS011;8704;52.006;4.374;2023-04-27T07:40:49;7.35;;;4.20;;
17177;SDS011;8704;52.006;4.374;2023-04-27T07:43:17;7.18;;;4.20;;
17177;SDS011;8704;52.006;4.374;2023-04-27T07:45:48;7.07;;;4.03;;
17177;SDS011;8704;52.006;4.374;2023-04-27T07:48:16;9.65;;;4.25;;
17177;SDS011;8704;52.006;4.374;2023-04-27T07:50:44;10.35;;;3.88;;
17177;SDS011;8704;52.006;4.374;2023-04-27T07:53:13;8.40;;;4.70;;
17177;SDS011;8704;52.006;4.374;2023-04-27T07:55:41;9.00;;;4.70;;
17177;SDS011;8704;52.006;4.374;2023-04-27T07:58:10;8.63;;;4.38;;
17177;SDS011;8704;52.006;4.374;2023-04-27T08:00:38;8.35;;;3.75;;
17177;SDS011;8704;52.006;4.374;2023-04-27T08:03:07;6.63;;;3.78;;
17177;SDS011;8704;52.006;4.374;2023-04-27T08:05:35;6.90;;;3.50;;
17177;SDS011;8704;52.006;4.374;2023-04-27T08:08:04;7.65;;;3.67;;
17177;SDS011;8704;52.006;4.374;2023-04-27T08:10:32;9.35;;;3.50;;
17177;SDS011;8704;52.006;4.374;2023-04-27T08:13:00;5.68;;;3.25;;
17177;SDS011;8704;52.006;4.374;2023-04-27T08:15:29;10.35;;;3.35;;
17177;SDS011;8704;52.006;4.374;2023-04-27T08:17:57;6.50;;;3.08;;
17177;SDS011;8704;52.006;4.374;2023-04-27T08:20:26;4.43;;;2.83;;
17177;SDS011;8704;52.006;4.374;2023-04-27T08:22:54;5.70;;;3.10;;
17177;SDS011;8704;52.006;4.374;2023-04-27T08:25:22;5.93;;;3.15;;
17177;SDS011;8704;52.006;4.374;2023-04-27T08:27:51;8.55;;;2.85;;
17177;SDS011;8704;52.006;4.374;2023-04-27T08:30:19;6.43;;;3.00;;
17177;SDS011;8704;52.006;4.374;2023-04-27T08:32:47;7.03;;;3.58;;
17177;SDS011;8704;52.006;4.374;2023-04-27T08:35:15;6.05;;;2.95;;
17177;SDS011;8704;52.006;4.374;2023-04-27T08:37:44;8.30;;;2.90;;
17177;SDS011;8704;52.006;4.374;2023-04-27T08:40:13;5.63;;;2.45;;
17177;SDS011;8704;52.006;4.374;2023-04-27T08:42:51;7.45;;;3.10;;
17177;SDS011;8704;52.006;4.374;2023-04-27T08:45:21;5.68;;;2.95;;
17177;SDS011;8704;52.006;4.374;2023-04-27T08:47:49;8.13;;;2.92;;
17177;SDS011;8704;52.006;4.374;2023-04-27T08:50:18;5.45;;;2.88;;
17177;SDS011;8704;52.006;4.374;2023-04-27T08:52:47;8.95;;;3.30;;
17177;SDS011;8704;52.006;4.374;2023-04-27T08:55:18;4.60;;;2.40;;
17177;SDS011;8704;52.006;4.374;2023-04-27T08:57:52;5.82;;;2.67;;
17177;SDS011;8704;52.006;4.374;2023-04-27T09:00:22;7.25;;;2.95;;
17177;SDS011;8704;52.006;4.374;2023-04-27T09:02:53;5.93;;;2.92;;
17177;SDS011;8704;52.006;4.374;2023-04-27T09:05:22;6.60;;;2.85;;
17177;SDS011;8704;52.006;4.374;2023-04-27T09:07:58;5.53;;;3.00;;
17177;SDS011;8704;52.006;4.374;2023-04-27T09:10:27;8.07;;;3.08;;
17177;SDS011;8704;52.006;4.374;2023-04-27T09:12:56;5.80;;;3.30;;
17177;SDS011;8704;52.006;4.374;2023-04-27T09:15:26;8.20;;;3.20;;
17177;SDS011;8704;52.006;4.374;2023-04-27T09:17:55;6.78;;;3.63;;
17177;SDS011;8704;52.006;4.374;2023-04-27T09:20:24;6.63;;;3.30;;
17177;SDS011;8704;52.006;4.374;2023-04-27T09:22:54;7.80;;;3.67;;
17177;SDS011;8704;52.006;4.374;2023-04-27T09:25:26;6.68;;;3.60;;
17177;SDS011;8704;52.006;4.374;2023-04-27T09:27:55;6.40;;;3.33;;
17177;SDS011;8704;52.006;4.374;2023-04-27T09:30:24;7.85;;;4.03;;
17177;SDS011;8704;52.006;4.374;2023-04-27T09:32:53;5.80;;;3.40;;
17177;SDS011;8704;52.006;4.374;2023-04-27T09:35:23;7.75;;;3.80;;
17177;SDS011;8704;52.006;4.374;2023-04-27T09:37:52;6.85;;;3.65;;
17177;SDS011;8704;52.006;4.374;2023-04-27T09:40:22;7.85;;;3.50;;
17177;SDS011;8704;52.006;4.374;2023-04-27T09:42:54;7.35;;;3.75;;
17177;SDS011;8704;52.006;4.374;2023-04-27T09:45:23;6.82;;;3.80;;
17177;SDS011;8704;52.006;4.374;2023-04-27T09:47:52;7.05;;;3.33;;
17177;SDS011;8704;52.006;4.374;2023-04-27T09:50:20;6.13;;;3.80;;
17177;SDS011;8704;52.006;4.374;2023-04-27T09:52:48;6.28;;;3.85;;
17177;SDS011;8704;52.006;4.374;2023-04-27T09:55:17;7.63;;;3.72;;
17177;SDS011;8704;52.006;4.374;2023-04-27T10:00:25;6.78;;;3.80;;
17177;SDS011;8704;52.006;4.374;2023-04-27T10:03:09;6.60;;;3.42;;
17177;SDS011;8704;52.006;4.374;2023-04-27T10:05:49;5.22;;;3.55;;
17177;SDS011;8704;52.006;4.374;2023-04-27T10:08:51;9.05;;;3.72;;
17177;SDS011;8704;52.006;4.374;2023-04-27T10:11:19;6.88;;;3.95;;
17177;SDS011;8704;52.006;4.374;2023-04-27T10:13:51;7.90;;;3.60;;
17177;SDS011;8704;52.006;4.374;2023-04-27T10:16:21;7.07;;;3.95;;
17177;SDS011;8704;52.006;4.374;2023-04-27T10:18:51;5.82;;;3.72;;
17177;SDS011;8704;52.006;4.374;2023-04-27T10:21:21;7.85;;;3.55;;
17177;SDS011;8704;52.006;4.374;2023-04-27T10:23:50;8.68;;;3.85;;
17177;SDS011;8704;52.006;4.374;2023-04-27T10:26:22;9.13;;;4.10;;
17177;SDS011;8704;52.006;4.374;2023-04-27T10:28:57;9.13;;;4.35;;
17177;SDS011;8704;52.006;4.374;2023-04-27T10:31:32;8.48;;;4.43;;
17177;SDS011;8704;52.006;4.374;2023-04-27T10:34:04;7.50;;;4.40;;
17177;SDS011;8704;52.006;4.374;2023-04-27T10:39:02;8.13;;;4.15;;
17177;SDS011;8704;52.006;4.374;2023-04-27T10:41:51;6.07;;;3.80;;
17177;SDS011;8704;52.006;4.374;2023-04-27T10:44:23;7.32;;;4.40;;
17177;SDS011;8704;52.006;4.374;2023-04-27T10:46:55;8.95;;;4.85;;
17177;SDS011;8704;52.006;4.374;2023-04-27T10:49:26;8.27;;;4.40;;
17177;SDS011;8704;52.006;4.374;2023-04-27T10:51:55;10.02;;;4.50;;
17177;SDS011;8704;52.006;4.374;2023-04-27T10:54:25;7.85;;;4.57;;
17177;SDS011;8704;52.006;4.374;2023-04-27T10:57:00;6.10;;;4.00;;
17177;SDS011;8704;52.006;4.374;2023-04-27T10:59:29;7.65;;;4.50;;
17177;SDS011;8704;52.006;4.374;2023-04-27T11:01:59;7.28;;;4.50;;
17177;SDS011;8704;52.006;4.374;2023-04-27T11:04:35;9.45;;;4.80;;
17177;SDS011;8704;52.006;4.374;2023-04-27T11:07:05;8.18;;;4.60;;
17177;SDS011;8704;52.006;4.374;2023-04-27T11:09:34;7.05;;;4.82;;
17177;SDS011;8704;52.006;4.374;2023-04-27T11:12:05;6.47;;;4.03;;
17177;SDS011;8704;52.006;4.374;2023-04-27T11:14:34;6.78;;;4.43;;
17177;SDS011;8704;52.006;4.374;2023-04-27T11:17:04;8.55;;;4.60;;
17177;SDS011;8704;52.006;4.374;2023-04-27T11:19:32;7.82;;;4.63;;
17177;SDS011;8704;52.006;4.374;2023-04-27T11:22:11;9.23;;;5.10;;
17177;SDS011;8704;52.006;4.374;2023-04-27T11:24:45;8.27;;;4.55;;
17177;SDS011;8704;52.006;4.374;2023-04-27T11:27:14;7.53;;;4.50;;
17177;SDS011;8704;52.006;4.374;2023-04-27T11:29:43;7.20;;;5.00;;
17177;SDS011;8704;52.006;4.374;2023-04-27T11:32:18;7.35;;;4.75;;
17177;SDS011;8704;52.006;4.374;2023-04-27T11:34:50;7.60;;;4.95;;
17177;SDS011;8704;52.006;4.374;2023-04-27T11:37:20;7.75;;;5.00;;
17177;SDS011;8704;52.006;4.374;2023-04-27T11:39:50;7.30;;;4.35;;
17177;SDS011;8704;52.006;4.374;2023-04-27T11:42:20;9.18;;;5.10;;
17177;SDS011;8704;52.006;4.374;2023-04-27T11:44:52;8.48;;;4.75;;
17177;SDS011;8704;52.006;4.374;2023-04-27T11:49:53;7.35;;;4.35;;
17177;SDS011;8704;52.006;4.374;2023-04-27T11:52:26;7.57;;;4.88;;
17177;SDS011;8704;52.006;4.374;2023-04-27T11:54:55;7.93;;;4.65;;
17177;SDS011;8704;52.006;4.374;2023-04-27T11:57:23;7.43;;;5.00;;
17177;SDS011;8704;52.006;4.374;2023-04-27T11:59:54;6.78;;;5.18;;
17177;SDS011;8704;52.006;4.374;2023-04-27T12:02:25;7.88;;;4.63;;
17177;SDS011;8704;52.006;4.374;2023-04-27T12:04:54;9.50;;;4.72;;
17177;SDS011;8704;52.006;4.374;2023-04-27T12:07:22;8.15;;;5.00;;
17177;SDS011;8704;52.006;4.374;2023-04-27T12:09:50;7.65;;;5.05;;
17177;SDS011;8704;52.006;4.374;2023-04-27T12:12:19;7.95;;;5.38;;
17177;SDS011;8704;52.006;4.374;2023-04-27T12:14:47;6.97;;;4.97;;
17177;SDS011;8704;52.006;4.374;2023-04-27T12:17:16;7.90;;;4.72;;
17177;SDS011;8704;52.006;4.374;2023-04-27T12:19:46;7.22;;;4.90;;
17177;SDS011;8704;52.006;4.374;2023-04-27T12:22:14;8.07;;;5.35;;
17177;SDS011;8704;52.006;4.374;2023-04-27T12:24:42;8.95;;;5.38;;
17177;SDS011;8704;52.006;4.374;2023-04-27T12:27:11;7.15;;;5.03;;
17177;SDS011;8704;52.006;4.374;2023-04-27T12:29:39;8.50;;;5.15;;
17177;SDS011;8704;52.006;4.374;2023-04-27T12:32:07;10.45;;;5.70;;
17177;SDS011;8704;52.006;4.374;2023-04-27T12:34:35;7.75;;;5.55;;
17177;SDS011;8704;52.006;4.374;2023-04-27T12:37:05;6.70;;;4.90;;
17177;SDS011;8704;52.006;4.374;2023-04-27T12:39:33;6.88;;;4.97;;
17177;SDS011;8704;52.006;4.374;2023-04-27T12:42:02;9.35;;;5.28;;
17177;SDS011;8704;52.006;4.374;2023-04-27T12:44:30;8.05;;;5.20;;
17177;SDS011;8704;52.006;4.374;2023-04-27T12:46:58;7.72;;;5.22;;
17177;SDS011;8704;52.006;4.374;2023-04-27T12:49:26;9.18;;;5.05;;
17177;SDS011;8704;52.006;4.374;2023-04-27T12:51:54;9.15;;;5.28;;
17177;SDS011;8704;52.006;4.374;2023-04-27T12:54:24;8.07;;;5.47;;
17177;SDS011;8704;52.006;4.374;2023-04-27T12:56:52;6.72;;;5.70;;
17177;SDS011;8704;52.006;4.374;2023-04-27T12:59:20;8.40;;;5.40;;
17177;SDS011;8704;52.006;4.374;2023-04-27T13:01:48;7.30;;;5.50;;
17177;SDS011;8704;52.006;4.374;2023-04-27T13:04:17;7.45;;;5.18;;
17177;SDS011;8704;52.006;4.374;2023-04-27T13:06:47;8.63;;;5.53;;
17177;SDS011;8704;52.006;4.374;2023-04-27T13:09:15;7.85;;;5.43;;
17177;SDS011;8704;52.006;4.374;2023-04-27T13:11:45;10.02;;;5.82;;
17177;SDS011;8704;52.006;4.374;2023-04-27T13:14:13;8.40;;;6.20;;
17177;SDS011;8704;52.006;4.374;2023-04-27T13:16:41;7.10;;;5.25;;
17177;SDS011;8704;52.006;4.374;2023-04-27T13:19:09;8.15;;;5.65;;
17177;SDS011;8704;52.006;4.374;2023-04-27T13:21:37;8.85;;;5.97;;
17177;SDS011;8704;52.006;4.374;2023-04-27T13:24:06;8.75;;;7.15;;
17177;SDS011;8704;52.006;4.374;2023-04-27T13:26:34;8.73;;;5.50;;
17177;SDS011;8704;52.006;4.374;2023-04-27T13:29:03;6.50;;;5.15;;
17177;SDS011;8704;52.006;4.374;2023-04-27T13:31:31;10.88;;;5.72;;
17177;SDS011;8704;52.006;4.374;2023-04-27T13:33:59;8.02;;;5.78;;
17177;SDS011;8704;52.006;4.374;2023-04-27T13:36:29;7.05;;;5.65;;
17177;SDS011;8704;52.006;4.374;2023-04-27T13:38:57;7.22;;;5.57;;
17177;SDS011;8704;52.006;4.374;2023-04-27T13:41:25;8.10;;;6.00;;
17177;SDS011;8704;52.006;4.374;2023-04-27T13:43:53;8.45;;;5.82;;
17177;SDS011;8704;52.006;4.374;2023-04-27T13:46:23;7.38;;;5.65;;
17177;SDS011;8704;52.006;4.374;2023-04-27T13:48:52;9.07;;;5.70;;
17177;SDS011;8704;52.006;4.374;2023-04-27T13:51:20;8.15;;;6.00;;
17177;SDS011;8704;52.006;4.374;2023-04-27T13:53:48;9.25;;;5.70;;
17177;SDS011;8704;52.006;4.374;2023-04-27T13:56:16;10.50;;;6.15;;
17177;SDS011;8704;52.006;4.374;2023-04-27T13:58:44;9.27;;;6.03;;
17177;SDS011;8704;52.006;4.374;2023-04-27T14:01:12;7.78;;;6.13;;
17177;SDS011;8704;52.006;4.374;2023-04-27T14:03:41;7.32;;;5.70;;
17177;SDS011;8704;52.006;4.374;2023-04-27T14:06:09;8.02;;;5.93;;
17177;SDS011;8704;52.006;4.374;2023-04-27T14:08:37;8.20;;;5.50;;
17177;SDS011;8704;52.006;4.374;2023-04-27T14:11:06;7.50;;;5.95;;
17177;SDS011;8704;52.006;4.374;2023-04-27T14:13:34;7.35;;;5.68;;
17177;SDS011;8704;52.006;4.374;2023-04-27T14:16:02;6.50;;;5.35;;
17177;SDS011;8704;52.006;4.374;2023-04-27T14:18:30;7.80;;;5.50;;
17177;SDS011;8704;52.006;4.374;2023-04-27T14:21:00;8.70;;;6.03;;
17177;SDS011;8704;52.006;4.374;2023-04-27T14:23:28;8.48;;;5.72;;
17177;SDS011;8704;52.006;4.374;2023-04-27T14:25:56;6.25;;;5.35;;
17177;SDS011;8704;52.006;4.374;2023-04-27T14:28:24;6.80;;;5.30;;
17177;SDS011;8704;52.006;4.374;2023-04-27T14:30:52;10.05;;;6.00;;
17177;SDS011;8704;52.006;4.374;2023-04-27T14:33:20;6.65;;;4.85;;
17177;SDS011;8704;52.006;4.374;2023-04-27T14:35:48;6.97;;;5.13;;
17177;SDS011;8704;52.006;4.374;2023-04-27T14:38:18;6.13;;;5.30;;
17177;SDS011;8704;52.006;4.374;2023-04-27T14:40:46;9.02;;;5.57;;
17177;SDS011;8704;52.006;4.374;2023-04-27T14:43:14;7.75;;;5.25;;
17177;SDS011;8704;52.006;4.374;2023-04-27T14:45:43;7.22;;;5.30;;
17177;SDS011;8704;52.006;4.374;2023-04-27T14:48:22;8.60;;;5.68;;
17177;SDS011;8704;52.006;4.374;2023-04-27T14:50:51;5.97;;;4.85;;
17177;SDS011;8704;52.006;4.374;2023-04-27T14:53:21;7.70;;;5.70;;
17177;SDS011;8704;52.006;4.374;2023-04-27T14:55:50;7.47;;;4.55;;
17177;SDS011;8704;52.006;4.374;2023-04-27T14:58:18;7.72;;;5.32;;
17177;SDS011;8704;52.006;4.374;2023-04-27T15:00:46;7.70;;;5.38;;
17177;SDS011;8704;52.006;4.374;2023-04-27T15:03:14;6.72;;;4.75;;
17177;SDS011;8704;52.006;4.374;2023-04-27T15:05:43;7.60;;;5.18;;
17177;SDS011;8704;52.006;4.374;2023-04-27T15:08:11;7.28;;;4.50;;
17177;SDS011;8704;52.006;4.374;2023-04-27T15:10:40;11.73;;;5.10;;